Time;durP1;ratioP1;P1;durP2;ratioP2;P2;SDS_P1;SDS_P2;PMS_P1;PMS_P2;Temp;Humidity;BMP_temperature;BMP_pressure;BME280_temperature;BME280_humidity;BME280_pressure;Samples;Min_cycle;Max_cycle;Signal;HPM_P1;HPM_P2
2021/06/19 00:00:22;;;;;;;26.30;22.08;;;;;;;32.59;30.59;94359.97;5116178;28;20050;-65
2021/06/19 00:02:50;;;;;;;16.33;14.63;;;;;;;32.48;30.50;94360.25;5116135;28;20051;-67
2021/06/19 00:05:18;;;;;;;11.32;10.07;;;;;;;32.56;30.27;94363.53;5116604;28;20059;-59
2021/06/19 00:07:45;;;;;;;8.13;7.32;;;;;;;32.65;30.66;94358.25;5116204;28;20043;-65
2021/06/19 00:10:13;;;;;;;7.32;6.45;;;;;;;32.62;29.93;94357.16;5116255;28;20051;-68
2021/06/19 00:12:41;;;;;;;7.10;5.55;;;;;;;32.73;30.26;94356.88;5116121;28;20078;-57
2021/06/19 00:15:11;;;;;;;4.82;4.32;;;;;;;32.40;30.45;94353.50;5136589;27;20047;-53
2021/06/19 00:17:38;;;;;;;5.22;4.18;;;;;;;32.71;29.89;94354.59;5136668;27;20072;-67
2021/06/19 00:20:12;;;;;;;5.15;3.92;;;;;;;32.34;30.77;94353.28;5136973;27;20073;-68
2021/06/19 00:22:40;;;;;;;4.20;3.50;;;;;;;32.24;30.97;94338.03;5115607;28;20370;-68
2021/06/19 00:25:09;;;;;;;4.00;3.50;;;;;;;32.27;30.40;94352.69;5116140;28;20055;-67
2021/06/19 00:27:37;;;;;;;3.85;3.45;;;;;;;32.40;30.65;94346.16;5115300;28;20047;-68
2021/06/19 00:30:06;;;;;;;4.82;3.58;;;;;;;32.49;30.33;94343.56;5116141;28;20047;-68
2021/06/19 00:32:34;;;;;;;6.68;3.35;;;;;;;32.62;29.57;94351.75;5115775;28;20370;-68
2021/06/19 00:35:01;;;;;;;4.00;3.35;;;;;;;32.10;30.92;94349.97;5116373;28;20043;-68
2021/06/19 00:37:28;;;;;;;3.65;3.35;;;;;;;32.06;30.97;94351.25;5115808;28;20047;-68
2021/06/19 00:39:55;;;;;;;3.42;3.13;;;;;;;32.65;29.94;94355.56;5116058;28;20043;-68
2021/06/19 00:42:22;;;;;;;3.92;3.40;;;;;;;32.61;29.55;94349.47;5115226;28;20044;-56
2021/06/19 00:44:50;;;;;;;3.38;3.08;;;;;;;32.58;29.72;94344.94;5115594;28;20369;-68
2021/06/19 00:47:17;;;;;;;3.47;3.17;;;;;;;32.35;29.99;94343.97;5133877;27;20117;-66
2021/06/19 00:49:44;;;;;;;4.28;3.97;;;;;;;32.24;30.13;94342.69;5136236;27;20050;-62
2021/06/19 00:52:11;;;;;;;4.90;4.05;;;;;;;32.43;30.08;94345.28;5120102;27;20044;-58
2021/06/19 00:54:38;;;;;;;4.50;4.10;;;;;;;32.32;30.49;94350.22;5115726;28;20055;-66
2021/06/19 00:57:08;;;;;;;4.30;3.88;;;;;;;32.68;29.81;94349.28;5115390;28;20046;-56
2021/06/19 00:59:38;;;;;;;4.10;3.70;;;;;;;32.38;29.92;94343.13;5114642;28;20047;-65
2021/06/19 01:02:06;;;;;;;5.43;4.23;;;;;;;32.56;30.15;94341.91;5115054;28;20043;-56
2021/06/19 01:04:33;;;;;;;4.30;3.90;;;;;;;32.44;29.86;94329.81;5114272;28;20055;-56
2021/06/19 01:07:01;;;;;;;5.82;5.32;;;;;;;32.45;30.18;94326.69;5115264;28;20047;-63
2021/06/19 01:09:28;;;;;;;4.93;4.25;;;;;;;32.06;30.58;94326.94;5115373;28;20374;-59
2021/06/19 01:11:55;;;;;;;4.15;3.75;;;;;;;32.20;30.83;94321.16;5114871;28;20058;-55
2021/06/19 01:14:22;;;;;;;3.33;3.03;;;;;;;32.28;30.38;94322.53;5128508;27;20445;-61
2021/06/19 01:16:50;;;;;;;3.80;3.45;;;;;;;32.39;30.33;94312.19;5135187;27;20051;-63
2021/06/19 01:19:17;;;;;;;3.42;3.03;;;;;;;32.43;30.28;94310.13;5135825;27;20043;-68
2021/06/19 01:21:45;;;;;;;4.05;3.20;;;;;;;32.42;29.62;94311.31;5124302;27;20043;-68
2021/06/19 01:24:14;;;;;;;4.40;3.00;;;;;;;32.10;30.46;94311.38;5115266;28;20039;-68
2021/06/19 01:26:42;;;;;;;3.03;2.80;;;;;;;32.11;30.06;94312.91;5115239;28;20050;-68
2021/06/19 01:29:10;;;;;;;2.80;2.60;;;;;;;31.77;30.95;94316.81;5114263;28;20358;-68
2021/06/19 01:31:38;;;;;;;2.85;2.40;;;;;;;32.16;30.23;94318.53;5114794;28;20051;-68
2021/06/19 01:34:06;;;;;;;5.03;3.08;;;;;;;32.36;30.27;94329.25;5115767;28;20047;-68
2021/06/19 01:36:33;;;;;;;3.55;2.40;;;;;;;32.33;30.16;94327.41;5114972;28;20370;-68
2021/06/19 01:39:01;;;;;;;3.58;2.33;;;;;;;31.90;30.93;94322.28;5116490;28;20074;-68
2021/06/19 01:41:30;;;;;;;3.15;2.60;;;;;;;32.27;30.24;94325.63;5117374;28;20449;-68
2021/06/19 01:44:03;;;;;;;3.25;2.40;;;;;;;31.93;30.75;94326.09;5130148;27;20046;-68
2021/06/19 01:46:33;;;;;;;2.70;2.25;;;;;;;32.14;30.61;94334.44;5138371;27;20369;-68
2021/06/19 01:49:00;;;;;;;3.53;2.63;;;;;;;31.82;30.90;94335.22;5139683;27;20055;-68
2021/06/19 01:51:27;;;;;;;5.57;2.38;;;;;;;31.94;30.71;94336.47;5132034;27;20051;-68
2021/06/19 01:53:55;;;;;;;4.15;2.50;;;;;;;32.23;30.74;94339.22;5119367;28;20047;-68
2021/06/19 01:56:23;;;;;;;2.92;2.10;;;;;;;31.66;31.09;94335.19;5118856;28;20043;-68
2021/06/19 01:58:51;;;;;;;3.40;2.10;;;;;;;32.00;30.74;94336.72;5119113;28;20054;-68
2021/06/19 02:01:19;;;;;;;2.22;1.75;;;;;;;31.74;31.03;94335.81;5118902;28;20369;-68
2021/06/19 02:03:49;;;;;;;2.05;1.85;;;;;;;31.27;31.83;94344.19;5119115;28;20043;-68
2021/06/19 02:06:16;;;;;;;2.90;1.90;;;;;;;31.44;31.48;94347.66;5118922;27;20480;-68
2021/06/19 02:08:55;;;;;;;2.28;1.92;;;;;;;31.59;31.48;94357.72;5118866;28;20047;-66
2021/06/19 02:11:22;;;;;;;1.85;1.70;;;;;;;31.22;32.00;94347.38;5117424;28;20051;-68
2021/06/19 02:13:49;;;;;;;1.98;1.67;;;;;;;31.39;31.32;94350.88;5128436;27;20039;-68
2021/06/19 02:16:17;;;;;;;1.90;1.70;;;;;;;31.38;31.89;94344.69;5138688;27;20085;-68
2021/06/19 02:18:44;;;;;;;3.05;1.80;;;;;;;31.54;31.70;94346.69;5139227;27;20042;-68
2021/06/19 02:21:11;;;;;;;2.47;1.75;;;;;;;31.53;31.32;94345.91;5107200;27;20117;-68
2021/06/19 02:23:38;;;;;;;1.63;1.52;;;;;;;31.68;31.20;94351.72;5118658;28;20448;-67
2021/06/19 02:26:05;;;;;;;4.40;1.65;;;;;;;31.71;31.14;94353.63;5118721;28;20044;-63
2021/06/19 02:28:32;;;;;;;2.67;1.90;;;;;;;31.65;30.82;94368.03;5118350;28;20048;-68
2021/06/19 02:30:59;;;;;;;2.80;1.90;;;;;;;31.14;32.14;94362.94;5118187;27;20082;-68
2021/06/19 02:33:26;;;;;;;2.03;1.73;;;;;;;31.35;32.31;94361.75;5105946;28;20058;-68
2021/06/19 02:35:54;;;;;;;3.42;2.40;;;;;;;31.17;32.38;94361.38;5097834;28;20078;-68
2021/06/19 02:38:21;;;;;;;3.28;1.92;;;;;;;31.54;31.42;94363.66;5097847;28;20044;-68
2021/06/19 02:40:49;;;;;;;2.67;2.22;;;;;;;31.26;32.08;94359.63;5096801;28;20047;-68
2021/06/19 02:43:18;;;;;;;3.28;1.85;;;;;;;31.26;32.35;94367.72;5123007;27;20047;-68
2021/06/19 02:45:45;;;;;;;4.68;2.03;;;;;;;31.11;32.79;94363.78;5138271;27;20050;-68
2021/06/19 02:48:13;;;;;;;4.45;2.17;;;;;;;31.09;32.83;94363.44;5138411;27;20047;-67
2021/06/19 02:50:42;;;;;;;3.83;2.00;;;;;;;30.96;32.47;94362.53;5137868;27;20447;-68
2021/06/19 02:53:11;;;;;;;3.13;2.00;;;;;;;30.82;33.01;94354.72;5118096;27;20043;-68
2021/06/19 02:55:40;;;;;;;3.58;2.15;;;;;;;31.03;32.71;94357.00;5117951;27;20051;-68
2021/06/19 02:58:09;;;;;;;2.78;2.10;;;;;;;30.97;32.51;94354.03;5117993;28;20046;-54
2021/06/19 03:00:36;;;;;;;2.42;1.77;;;;;;;31.27;32.19;94355.75;5117568;28;20051;-68
2021/06/19 03:03:04;;;;;;;3.13;1.65;;;;;;;31.17;31.99;94355.97;5117229;28;20051;-68
2021/06/19 03:05:32;;;;;;;1.98;1.60;;;;;;;31.41;31.75;94348.50;5103685;28;20048;-68
2021/06/19 03:08:00;;;;;;;2.40;1.60;;;;;;;31.19;32.62;94351.66;5096210;28;20052;-68
2021/06/19 03:10:30;;;;;;;4.32;1.50;;;;;;;31.10;33.01;94346.06;5097184;28;20047;-68
2021/06/19 03:12:58;;;;;;;4.28;1.90;;;;;;;31.38;32.50;94349.34;5116226;27;20039;-68
2021/06/19 03:15:25;;;;;;;2.17;1.88;;;;;;;31.14;32.60;94345.97;5137744;27;20121;-68
2021/06/19 03:17:53;;;;;;;2.15;1.83;;;;;;;31.08;32.65;94348.41;5137016;27;20042;-68
2021/06/19 03:20:20;;;;;;;2.50;1.90;;;;;;;30.87;32.67;94346.16;5137926;27;20060;-68
2021/06/19 03:22:58;;;;;;;3.13;1.90;;;;;;;30.83;33.11;94348.91;5121618;27;20055;-53
2021/06/19 03:25:28;;;;;;;3.55;2.00;;;;;;;30.92;33.23;94351.06;5117434;28;20454;-58
2021/06/19 03:27:56;;;;;;;2.85;1.90;;;;;;;30.62;33.30;94350.09;5117288;28;20047;-55
2021/06/19 03:30:24;;;;;;;2.83;1.90;;;;;;;31.14;32.52;94345.97;5117228;28;20051;-62
2021/06/19 03:32:51;;;;;;;3.33;1.60;;;;;;;31.16;32.12;94347.09;5116701;28;20043;-64
2021/06/19 03:35:19;;;;;;;2.40;1.80;;;;;;;30.77;33.28;94341.75;5117241;28;20047;-56
2021/06/19 03:37:47;;;;;;;2.55;1.83;;;;;;;30.72;33.66;94337.59;5115161;28;20441;-54
2021/06/19 03:40:16;;;;;;;4.00;1.80;;;;;;;31.08;32.96;94343.00;5116768;28;20339;-56
2021/06/19 03:42:45;;;;;;;1.83;1.48;;;;;;;30.98;32.53;94335.91;5117158;27;20062;-54
2021/06/19 03:45:13;;;;;;;2.85;1.90;;;;;;;30.85;32.86;94335.78;5131151;27;20040;-63
2021/06/19 03:47:41;;;;;;;2.40;1.73;;;;;;;30.94;32.65;94340.59;5137227;27;20069;-55
2021/06/19 03:50:10;;;;;;;1.95;1.75;;;;;;;30.84;32.79;94338.88;5119419;27;20389;-55
2021/06/19 03:52:37;;;;;;;2.80;1.80;;;;;;;30.85;33.24;94335.00;5110557;28;20048;-61
2021/06/19 03:55:06;;;;;;;2.65;1.60;;;;;;;31.13;32.46;94339.81;5096374;28;20043;-60
2021/06/19 03:57:36;;;;;;;3.20;1.70;;;;;;;31.00;33.17;94347.06;5096211;28;20052;-58
2021/06/19 04:00:08;;;;;;;2.92;1.92;;;;;;;30.73;33.66;94351.84;5112501;28;20350;-56
2021/06/19 04:02:41;;;;;;;3.05;2.30;;;;;;;30.65;34.04;94354.66;5115273;28;20316;-68
2021/06/19 04:05:09;;;;;;;3.10;1.85;;;;;;;30.73;33.80;94343.75;5116692;28;20039;-68
2021/06/19 04:07:36;;;;;;;2.60;2.05;;;;;;;31.03;33.47;94330.00;5115539;27;20043;-67
2021/06/19 04:10:05;;;;;;;3.10;2.80;;;;;;;30.95;33.28;94336.72;5115140;28;20109;-68
2021/06/19 04:12:33;;;;;;;3.42;2.38;;;;;;;31.14;33.05;94335.94;5116058;28;20073;-54
2021/06/19 04:15:00;;;;;;;2.50;2.30;;;;;;;30.91;33.87;94334.09;5116161;28;20058;-59
2021/06/19 04:17:29;;;;;;;3.58;2.13;;;;;;;31.08;33.93;94326.81;5134204;27;20050;-46
2021/06/19 04:19:57;;;;;;;4.45;2.17;;;;;;;31.20;33.20;94323.47;5115623;28;20039;-49
2021/06/19 04:22:24;;;;;;;3.22;1.90;;;;;;;31.54;32.95;94331.22;5115819;28;20059;-52
2021/06/19 04:24:52;;;;;;;2.92;2.20;;;;;;;31.27;33.72;94323.34;5116103;28;20048;-54
2021/06/19 04:27:21;;;;;;;2.42;2.10;;;;;;;31.73;32.40;94326.94;5115947;28;20047;-45
2021/06/19 04:29:49;;;;;;;1.73;1.60;;;;;;;31.51;32.28;94326.66;5115877;28;20052;-55
2021/06/19 04:32:18;;;;;;;2.20;1.88;;;;;;;31.34;32.70;94327.81;5115622;28;20970;-54
2021/06/19 04:34:45;;;;;;;1.98;1.88;;;;;;;31.78;32.07;94334.56;5114963;28;20346;-54
2021/06/19 04:37:14;;;;;;;2.20;1.70;;;;;;;31.96;31.62;94331.41;5115210;28;20044;-51
2021/06/19 04:42:39;;;;;;;1.80;1.70;;;;;;;31.77;32.07;94333.03;5089278;28;20047;-40
2021/06/19 04:45:10;;;;;;;3.83;1.65;;;;;;;31.58;32.72;94341.94;5095420;28;20044;-57
2021/06/19 04:47:38;;;;;;;1.77;1.58;;;;;;;32.00;31.38;94350.22;5136400;27;20047;-40
2021/06/19 04:50:10;;;;;;;3.05;1.70;;;;;;;31.83;32.03;94355.66;5120268;27;20047;-44
2021/06/19 04:52:42;;;;;;;3.72;1.88;;;;;;;31.95;31.64;94358.84;5115433;28;20340;-44
2021/06/19 04:55:17;;;;;;;2.72;1.83;;;;;;;31.82;31.91;94354.16;5115654;28;20044;-49
2021/06/19 04:57:48;;;;;;;2.80;2.00;;;;;;;31.59;32.26;94365.06;5115659;28;20331;-52
2021/06/19 05:00:15;;;;;;;4.65;1.80;;;;;;;31.42;32.58;94355.44;5115267;28;20323;-51
2021/06/19 05:02:42;;;;;;;3.35;1.80;;;;;;;31.11;33.53;94361.06;5112680;28;20055;-52
2021/06/19 05:05:10;;;;;;;4.07;1.70;;;;;;;31.34;33.16;94372.97;5115463;28;20051;-52
2021/06/19 05:07:37;;;;;;;3.90;2.05;;;;;;;31.73;32.56;94372.88;5095184;28;20047;-51
2021/06/19 05:10:06;;;;;;;5.55;1.77;;;;;;;31.29;33.18;94372.28;5109488;28;20351;-54
2021/06/19 05:12:36;;;;;;;3.20;1.95;;;;;;;32.14;31.34;94371.53;5114988;28;20046;-52
2021/06/19 05:15:05;;;;;;;4.30;2.05;;;;;;;31.82;32.04;94372.31;5097485;27;20047;-55
2021/06/19 05:17:32;;;;;;;3.10;2.00;;;;;;;32.02;31.71;94380.34;5094676;28;20405;-52
2021/06/19 05:19:59;;;;;;;6.60;2.58;;;;;;;31.66;32.51;94381.13;5108447;28;20040;-51
2021/06/19 05:22:26;;;;;;;5.28;2.65;;;;;;;32.22;31.89;94372.84;5113992;28;20373;-47
2021/06/19 05:24:53;;;;;;;3.20;2.28;;;;;;;32.46;31.64;94365.31;5115108;28;20446;-69
2021/06/19 05:27:21;;;;;;;2.92;2.10;;;;;;;32.40;31.45;94362.38;5110566;28;20056;-50
2021/06/19 05:29:48;;;;;;;4.82;2.40;;;;;;;32.15;31.93;94356.81;5114454;28;20051;-57
2021/06/19 05:32:15;;;;;;;2.97;2.10;;;;;;;32.56;31.69;94363.53;5115124;28;20054;-46
2021/06/19 05:34:42;;;;;;;3.85;2.00;;;;;;;32.73;31.20;94362.28;5114308;28;20043;-47
2021/06/19 05:37:10;;;;;;;4.32;2.10;;;;;;;32.62;31.87;94356.41;5114364;28;20039;-47
2021/06/19 05:39:37;;;;;;;3.47;1.85;;;;;;;32.43;31.45;94366.19;5114044;28;20039;-47
2021/06/19 05:42:05;;;;;;;2.80;2.10;;;;;;;32.39;31.51;94368.97;5113978;28;20043;-45
2021/06/19 05:44:32;;;;;;;4.38;2.45;;;;;;;32.41;31.83;94360.44;5115664;28;20043;-45
2021/06/19 05:46:59;;;;;;;3.22;2.00;;;;;;;32.47;31.68;94374.94;5114993;28;20043;-46
2021/06/19 05:49:27;;;;;;;2.92;2.00;;;;;;;32.92;31.49;94368.75;5114024;28;20358;-46
2021/06/19 05:51:54;;;;;;;3.38;2.25;;;;;;;32.85;31.87;94372.44;5111786;28;20346;-52
2021/06/19 05:54:21;;;;;;;2.78;2.30;;;;;;;32.64;32.38;94364.84;5114727;28;20051;-47
2021/06/19 05:56:48;;;;;;;2.40;2.13;;;;;;;33.07;31.29;94365.22;5114612;28;20062;-46
2021/06/19 05:59:15;;;;;;;3.05;2.10;;;;;;;32.78;31.58;94369.88;5114549;28;20319;-47
2021/06/19 06:01:42;;;;;;;3.50;2.38;;;;;;;32.60;31.33;94358.78;5115236;28;20054;-47
2021/06/19 06:04:10;;;;;;;2.70;2.22;;;;;;;32.83;31.74;94371.34;5114867;28;20485;-48
2021/06/19 06:06:37;;;;;;;2.47;1.80;;;;;;;32.73;31.73;94368.44;5113695;28;20055;-49
2021/06/19 06:09:04;;;;;;;3.38;2.40;;;;;;;32.61;32.12;94373.84;5114270;28;20054;-49
2021/06/19 06:11:31;;;;;;;2.58;2.22;;;;;;;32.96;31.54;94370.16;5114856;28;20054;-47
2021/06/19 06:13:58;;;;;;;4.53;2.30;;;;;;;32.11;32.79;94372.38;5112581;28;20043;-47
2021/06/19 06:16:25;;;;;;;15.20;2.97;;;;;;;32.81;32.15;94377.19;5124888;28;20070;-54
2021/06/19 06:18:52;;;;;;;4.75;2.70;;;;;;;32.90;31.34;94382.72;5132020;28;20043;-43
2021/06/19 06:21:19;;;;;;;3.88;2.75;;;;;;;32.72;32.41;94385.13;5114762;28;20446;-44
2021/06/19 06:23:46;;;;;;;3.90;2.28;;;;;;;32.67;32.46;94385.66;5114336;28;20066;-48
2021/06/19 06:26:13;;;;;;;3.42;2.60;;;;;;;33.18;31.30;94385.81;5115935;28;20051;-48
2021/06/19 06:28:41;;;;;;;3.58;2.35;;;;;;;33.23;31.92;94382.56;5118008;28;20059;-56
2021/06/19 06:31:08;;;;;;;4.57;2.72;;;;;;;33.28;31.76;94384.72;5117154;28;20050;-43
2021/06/19 06:33:35;;;;;;;2.90;2.30;;;;;;;32.82;33.17;94380.66;5118337;27;20047;-44
2021/06/19 06:36:03;;;;;;;5.03;2.63;;;;;;;32.64;33.88;94389.22;5118180;28;20047;-53
2021/06/19 06:38:30;;;;;;;7.13;3.00;;;;;;;32.86;32.45;94384.78;5118277;28;20055;-42
2021/06/19 06:40:57;;;;;;;5.47;2.58;;;;;;;33.26;32.06;94382.47;5117651;28;20481;-42
2021/06/19 06:43:24;;;;;;;3.33;2.55;;;;;;;33.19;31.59;94376.50;5117368;27;20043;-48
2021/06/19 06:45:51;;;;;;;5.63;2.75;;;;;;;33.24;31.13;94378.66;5116629;27;20481;-45
2021/06/19 06:48:19;;;;;;;3.67;2.83;;;;;;;33.83;30.47;94378.09;5097505;28;20048;-55
2021/06/19 06:50:46;;;;;;;3.95;2.90;;;;;;;33.63;31.02;94383.72;5114497;28;20465;-51
2021/06/19 06:53:13;;;;;;;4.90;2.85;;;;;;;34.12;30.47;94372.53;5118013;28;20044;-49
2021/06/19 06:55:40;;;;;;;4.30;3.03;;;;;;;33.36;31.26;94370.59;5115070;28;20050;-48
2021/06/19 06:58:07;;;;;;;4.57;3.30;;;;;;;33.44;31.14;94363.00;5097344;28;20378;-52
2021/06/19 07:00:34;;;;;;;3.70;2.97;;;;;;;34.11;30.95;94362.88;5104606;28;20043;-64
2021/06/19 07:03:01;;;;;;;2.92;2.60;;;;;;;33.99;30.71;94366.34;5097274;28;20052;-46
2021/06/19 07:05:28;;;;;;;4.25;2.80;;;;;;;34.33;31.01;94357.47;5097318;28;20047;-45
2021/06/19 07:07:55;;;;;;;2.90;2.30;;;;;;;34.39;30.41;94355.78;5097270;28;20044;-44
2021/06/19 07:10:23;;;;;;;2.92;2.60;;;;;;;34.43;30.27;94361.81;5109679;28;20051;-44
2021/06/19 07:12:50;;;;;;;3.95;2.53;;;;;;;34.36;30.40;94355.91;5117889;27;20381;-44
2021/06/19 07:15:18;;;;;;;4.93;2.72;;;;;;;34.73;29.63;94351.50;5137593;27;20047;-45
2021/06/19 07:17:47;;;;;;;3.00;2.50;;;;;;;34.96;30.83;94353.03;5138141;27;20039;-43
2021/06/19 07:20:14;;;;;;;2.80;2.58;;;;;;;34.67;31.13;94354.03;5126088;27;20035;-43
2021/06/19 07:22:42;;;;;;;4.75;2.80;;;;;;;34.76;31.31;94345.94;5117122;28;20056;-45
2021/06/19 07:25:10;;;;;;;3.13;2.80;;;;;;;34.92;31.47;94353.16;5100453;28;20050;-44
2021/06/19 07:27:37;;;;;;;2.80;2.25;;;;;;;35.07;29.92;94342.53;5097010;28;20047;-44
2021/06/19 07:30:05;;;;;;;4.00;3.08;;;;;;;35.42;29.52;94335.03;5105505;28;20047;-43
2021/06/19 07:32:33;;;;;;;3.83;2.83;;;;;;;35.17;30.79;94341.38;5117191;27;20051;-46
2021/06/19 07:35:00;;;;;;;3.53;2.75;;;;;;;34.84;32.13;94341.78;5117136;28;20048;-44
2021/06/19 07:37:27;;;;;;;3.13;2.70;;;;;;;35.22;30.27;94335.38;5116989;27;20059;-43
2021/06/19 07:39:55;;;;;;;7.85;2.75;;;;;;;35.53;29.71;94336.13;5116704;28;20047;-46
2021/06/19 07:42:22;;;;;;;2.42;2.22;;;;;;;35.64;28.67;94334.94;5113030;27;20044;-45
2021/06/19 07:44:50;;;;;;;3.15;2.50;;;;;;;35.53;29.26;94332.66;5131740;27;20047;-46
2021/06/19 07:47:17;;;;;;;3.00;2.67;;;;;;;36.06;28.42;94327.81;5137069;27;20473;-44
2021/06/19 07:49:44;;;;;;;4.50;2.60;;;;;;;36.24;28.41;94331.78;5130422;27;20054;-44
2021/06/19 07:52:11;;;;;;;4.10;2.40;;;;;;;36.47;28.69;94333.94;5116858;28;20048;-53
2021/06/19 07:54:39;;;;;;;3.85;2.47;;;;;;;36.06;29.13;94325.09;5116870;28;20043;-49
2021/06/19 07:57:07;;;;;;;5.18;2.70;;;;;;;35.38;29.92;94326.25;5116660;28;20370;-44
2021/06/19 07:59:35;;;;;;;3.72;2.10;;;;;;;35.81;29.45;94322.63;5116119;28;20055;-47
2021/06/19 08:02:05;;;;;;;26.60;15.32;;;;;;;35.11;30.19;94322.19;5096004;28;20059;-41
2021/06/19 08:04:34;;;;;;;8.23;3.95;;;;;;;35.57;29.44;94316.97;5096061;28;20056;-62
2021/06/19 08:07:02;;;;;;;6.38;3.22;;;;;;;35.92;28.74;94320.25;5096087;28;20051;-53
2021/06/19 08:09:29;;;;;;;2.97;2.45;;;;;;;35.97;28.22;94316.94;5097569;28;20054;-55
2021/06/19 08:11:57;;;;;;;3.03;2.70;;;;;;;36.23;27.84;94319.38;5116398;28;20051;-50
2021/06/19 08:14:24;;;;;;;7.78;2.90;;;;;;;34.42;30.87;94316.91;5107546;27;20044;-64
2021/06/19 08:16:57;;;;;;;2.83;2.53;;;;;;;34.52;30.46;94325.84;5112220;27;20047;-60
2021/06/19 08:19:24;;;;;;;3.67;2.80;;;;;;;35.00;28.99;94323.78;5115739;27;20031;-52
2021/06/19 08:21:52;;;;;;;6.00;2.80;;;;;;;34.44;29.37;94325.34;5108115;28;20055;-58
2021/06/19 08:24:19;;;;;;;6.10;3.25;;;;;;;34.43;30.63;94318.41;5095780;28;20051;-56
2021/06/19 08:26:46;;;;;;;3.13;2.83;;;;;;;34.47;29.93;94318.28;5099467;28;20044;-67
2021/06/19 08:29:13;;;;;;;4.25;2.90;;;;;;;34.19;30.39;94323.47;5105549;28;20044;-49
2021/06/19 08:31:41;;;;;;;5.50;3.33;;;;;;;34.70;30.06;94320.56;5105975;28;20059;-50
2021/06/19 08:34:09;;;;;;;5.03;3.50;;;;;;;35.26;29.26;94310.78;5116007;28;20058;-57
2021/06/19 08:36:37;;;;;;;8.70;4.88;;;;;;;35.13;29.52;94303.50;5114151;28;20450;-42
2021/06/19 08:39:05;;;;;;;8.85;7.13;;;;;;;35.31;30.00;94308.22;5115643;28;20050;-51
2021/06/19 08:41:32;;;;;;;6.40;5.80;;;;;;;34.74;31.77;94293.28;5114156;28;20062;-54
2021/06/19 08:44:01;;;;;;;5.80;3.63;;;;;;;34.44;32.32;94297.47;5113341;27;20054;-45
2021/06/19 08:46:30;;;;;;;4.35;3.42;;;;;;;34.77;31.02;94295.88;5117476;27;20051;-44
2021/06/19 08:48:57;;;;;;;5.05;3.70;;;;;;;34.68;31.24;94295.81;5114867;28;20485;-42
2021/06/19 08:51:26;;;;;;;3.50;2.90;;;;;;;35.37;28.89;94298.31;5115641;28;20047;-66
2021/06/19 08:53:54;;;;;;;3.10;2.80;;;;;;;36.69;27.26;94301.06;5104665;28;20059;-41
2021/06/19 08:56:23;;;;;;;4.88;4.38;;;;;;;36.29;28.86;94290.34;5094879;28;20044;-50
2021/06/19 08:58:51;;;;;;;103.07;96.35;;;;;;;36.85;26.09;94286.41;5112918;28;20496;-47
2021/06/19 09:01:18;;;;;;;15.48;13.98;;;;;;;36.38;27.57;94276.78;5115357;28;20401;-50
2021/06/19 09:03:45;;;;;;;16.42;15.13;;;;;;;36.55;26.29;94280.69;5114390;28;20043;-39
2021/06/19 09:06:15;;;;;;;6.22;5.70;;;;;;;36.73;26.36;94288.09;5094889;28;20370;-44
2021/06/19 09:09:05;;;;;;;3.50;3.20;;;;;;;37.47;25.83;94288.63;5099539;28;20047;-41
2021/06/19 09:11:42;;;;;;;6.07;3.00;;;;;;;37.18;27.12;94287.22;5095075;28;20323;-50
2021/06/19 09:14:15;;;;;;;12.90;11.70;;;;;;;37.20;24.69;94284.78;5095039;28;20040;-41
2021/06/19 09:16:44;;;;;;;4.50;3.53;;;;;;;36.29;26.48;94279.47;5126150;27;20365;-43
2021/06/19 09:19:30;;;;;;;4.05;3.20;;;;;;;36.16;26.16;94276.88;5110353;28;20059;-47
2021/06/19 09:22:13;;;;;;;3.40;3.10;;;;;;;36.44;25.86;94272.25;5094977;28;20047;-49
2021/06/19 09:24:54;;;;;;;3.65;3.30;;;;;;;36.12;27.39;94277.03;5094779;28;20050;-50
2021/06/19 09:27:37;;;;;;;3.70;3.25;;;;;;;36.14;27.92;94279.31;5107249;28;20047;-52
2021/06/19 09:30:17;;;;;;;4.15;3.00;;;;;;;35.78;29.54;94282.72;5115128;28;20043;-43
2021/06/19 09:33:00;;;;;;;4.95;3.25;;;;;;;35.29;29.92;94290.88;5115034;28;20473;-45
2021/06/19 09:35:29;;;;;;;3.92;3.05;;;;;;;35.33;29.21;94294.97;5113995;28;20044;-45
2021/06/19 09:38:01;;;;;;;3.92;3.13;;;;;;;35.10;29.41;94292.75;5105925;28;20374;-47
2021/06/19 09:40:34;;;;;;;3.22;2.92;;;;;;;35.07;29.27;94299.06;5115083;28;20481;-65
2021/06/19 09:43:17;;;;;;;6.07;3.10;;;;;;;34.33;30.99;94293.13;5114279;28;20059;-49
2021/06/19 09:46:00;;;;;;;6.13;2.88;;;;;;;34.83;30.54;94301.47;5124064;28;20046;-47
2021/06/19 09:48:38;;;;;;;8.45;7.47;;;;;;;34.57;31.26;94307.03;5117242;28;20456;-50
2021/06/19 09:51:21;;;;;;;14.85;13.32;;;;;;;34.57;30.65;94306.28;5114863;28;20051;-45
2021/06/19 09:53:52;;;;;;;39.53;36.35;;;;;;;34.54;31.47;94307.19;5103361;28;20051;-45
2021/06/19 09:56:21;;;;;;;57.78;53.30;;;;;;;34.64;31.18;94295.19;5093327;28;20058;-45
2021/06/19 09:58:57;;;;;;;10.85;9.77;;;;;;;35.46;29.72;94292.94;5113118;28;20044;-44
2021/06/19 10:01:34;;;;;;;61.83;43.10;;;;;;;35.19;30.44;94300.94;5098272;28;20055;-52
2021/06/19 10:04:02;;;;;;;32.83;23.60;;;;;;;35.52;30.40;94285.69;5098827;28;20051;-50
2021/06/19 10:06:31;;;;;;;6.45;5.10;;;;;;;35.44;30.53;94289.91;5098401;28;20051;-45
2021/06/19 10:08:59;;;;;;;7.03;3.95;;;;;;;35.77;29.97;94284.69;5118674;28;20040;-45
2021/06/19 10:11:27;;;;;;;6.78;3.90;;;;;;;35.57;30.21;94291.75;5117803;28;20048;-49
2021/06/19 10:13:59;;;;;;;56.90;37.10;;;;;;;35.66;29.40;94283.63;5112117;28;20043;-51
2021/06/19 10:16:29;;;;;;;13.30;9.63;;;;;;;35.75;29.28;94273.50;5128782;27;20050;-51
2021/06/19 10:18:56;;;;;;;12.67;7.90;;;;;;;35.57;29.45;94264.56;5118488;28;20039;-50
2021/06/19 10:21:25;;;;;;;5.13;4.20;;;;;;;35.68;29.31;94248.59;5118548;28;20052;-48
2021/06/19 10:23:52;;;;;;;7.60;4.80;;;;;;;34.87;30.44;94245.09;5118611;28;20382;-48
2021/06/19 10:26:24;;;;;;;7.80;5.85;;;;;;;35.10;29.69;94243.84;5118269;28;20055;-48
2021/06/19 10:28:56;;;;;;;24.23;13.82;;;;;;;35.39;29.84;94244.28;5117977;28;20048;-47
2021/06/19 10:31:24;;;;;;;4.43;3.50;;;;;;;35.96;29.23;94236.56;5118305;28;20355;-55
2021/06/19 10:33:51;;;;;;;3.72;3.30;;;;;;;36.52;28.23;94238.06;5116516;28;20052;-49
2021/06/19 10:36:19;;;;;;;3.67;3.00;;;;;;;36.23;27.74;94229.59;5116845;28;20048;-47
2021/06/19 10:38:47;;;;;;;5.97;3.20;;;;;;;35.99;30.67;94221.28;5118017;28;20048;-46
2021/06/19 10:41:14;;;;;;;3.17;2.80;;;;;;;36.20;28.43;94233.22;5118241;28;20042;-47
2021/06/19 10:43:46;;;;;;;3.65;3.08;;;;;;;36.59;28.56;94224.13;5118201;28;20047;-49
2021/06/19 10:46:33;;;;;;;3.45;3.15;;;;;;;36.10;28.81;94219.63;5125912;27;20073;-44
2021/06/19 10:49:02;;;;;;;5.47;3.15;;;;;;;37.58;27.53;94215.28;5099441;27;20051;-46
2021/06/19 10:51:32;;;;;;;4.78;2.90;;;;;;;36.12;27.63;94205.56;5097718;28;20446;-42
2021/06/19 10:54:14;;;;;;;3.35;2.90;;;;;;;36.41;28.34;94210.53;5097919;28;20044;-43
2021/06/19 10:57:02;;;;;;;3.17;2.60;;;;;;;36.55;28.49;94206.44;5113442;28;20039;-44
2021/06/19 10:59:32;;;;;;;3.00;2.70;;;;;;;36.34;28.14;94216.31;5118389;28;20051;-42
2021/06/19 11:02:01;;;;;;;3.60;2.72;;;;;;;36.56;27.67;94219.59;5118581;28;20043;-43
2021/06/19 11:04:40;;;;;;;3.42;2.67;;;;;;;36.81;27.83;94220.47;5118295;27;20047;-47
2021/06/19 11:07:10;;;;;;;3.20;2.90;;;;;;;36.83;27.49;94229.69;5117847;28;20040;-44
2021/06/19 11:09:42;;;;;;;2.53;2.28;;;;;;;36.48;28.10;94236.72;5118334;27;20048;-44
2021/06/19 11:12:30;;;;;;;4.07;2.50;;;;;;;36.33;29.03;94244.72;5117853;28;20051;-43
2021/06/19 11:14:58;;;;;;;2.75;2.50;;;;;;;36.47;28.29;94241.41;5120221;27;20124;-44
2021/06/19 11:17:31;;;;;;;4.32;2.40;;;;;;;35.83;29.07;94235.94;5117853;28;20059;-44
2021/06/19 11:20:02;;;;;;;3.90;2.70;;;;;;;36.35;28.75;94245.03;5118099;28;20047;-45
2021/06/19 11:22:33;;;;;;;3.58;2.70;;;;;;;35.68;29.65;94254.03;5116989;28;20047;-44
2021/06/19 11:25:28;;;;;;;4.35;2.85;;;;;;;35.88;29.63;94272.66;5108181;28;20050;-43
2021/06/19 11:28:20;;;;;;;3.47;2.30;;;;;;;35.18;29.61;94283.91;5117771;28;20047;-44
2021/06/19 11:30:55;;;;;;;2.80;1.90;;;;;;;34.64;28.98;94262.63;5117411;28;20450;-44
2021/06/19 11:33:25;;;;;;;2.05;1.90;;;;;;;34.15;29.32;94267.84;5116179;28;20051;-42
2021/06/19 11:36:04;;;;;;;4.45;2.80;;;;;;;33.66;30.25;94279.88;5109053;28;20050;-52
2021/06/19 11:38:45;;;;;;;3.78;2.30;;;;;;;33.76;29.90;94282.66;5117392;28;20052;-45
2021/06/19 11:41:14;;;;;;;4.75;4.28;;;;;;;33.91;29.54;94294.59;5117167;28;20043;-62
2021/06/19 11:43:43;;;;;;;10.13;7.47;;;;;;;33.56;30.20;94308.03;5117020;28;20048;-45